sensor_id;sensor_type;location;lat;lon;timestamp;pressure;altitude;pressure_sealevel;temperature;humidity
71917;BME280;59793;46.506;6.674;2023-04-06T00:00:50;97379.13;;;6.75;45.67
71917;BME280;59793;46.506;6.674;2023-04-06T00:03:15;97384.69;;;6.82;45.52
71917;BME280;59793;46.506;6.674;2023-04-06T00:05:41;97380.22;;;6.91;45.01
71917;BME280;59793;46.506;6.674;2023-04-06T00:08:07;97370.69;;;6.86;44.20
71917;BME280;59793;46.506;6.674;2023-04-06T00:10:32;97361.72;;;6.96;44.38
71917;BME280;59793;46.506;6.674;2023-04-06T00:12:58;97363.72;;;6.99;44.93
71917;BME280;59793;46.506;6.674;2023-04-06T00:15:24;97370.38;;;6.97;44.14
71917;BME280;59793;46.506;6.674;2023-04-06T00:17:50;97370.84;;;7.07;44.81
71917;BME280;59793;46.506;6.674;2023-04-06T00:20:16;97366.97;;;6.96;44.64
71917;BME280;59793;46.506;6.674;2023-04-06T00:22:43;97371.59;;;6.90;45.63
71917;BME280;59793;46.506;6.674;2023-04-06T00:25:09;97372.06;;;7.01;45.80
71917;BME280;59793;46.506;6.674;2023-04-06T00:27:35;97364.34;;;6.96;45.61
71917;BME280;59793;46.506;6.674;2023-04-06T00:30:01;97349.25;;;7.02;45.26
71917;BME280;59793;46.506;6.674;2023-04-06T00:32:27;97333.56;;;6.93;44.68
71917;BME280;59793;46.506;6.674;2023-04-06T00:34:52;97356.03;;;7.11;44.06
71917;BME280;59793;46.506;6.674;2023-04-06T00:37:18;97303.34;;;6.78;43.62
71917;BME280;59793;46.506;6.674;2023-04-06T00:39:44;97365.44;;;7.21;43.81
71917;BME280;59793;46.506;6.674;2023-04-06T00:42:13;97351.09;;;7.10;44.45
71917;BME280;59793;46.506;6.674;2023-04-06T00:44:40;97360.19;;;7.21;45.32
71917;BME280;59793;46.506;6.674;2023-04-06T00:47:05;97344.31;;;7.17;45.42
71917;BME280;59793;46.506;6.674;2023-04-06T00:49:32;97335.69;;;7.08;45.95
71917;BME280;59793;46.506;6.674;2023-04-06T00:51:59;97355.13;;;7.07;46.46
71917;BME280;59793;46.506;6.674;2023-04-06T00:54:25;97357.56;;;7.12;46.24
71917;BME280;59793;46.506;6.674;2023-04-06T00:56:50;97358.34;;;7.04;46.18
71917;BME280;59793;46.506;6.674;2023-04-06T00:59:16;97356.66;;;7.08;46.06
71917;BME280;59793;46.506;6.674;2023-04-06T01:01:41;97344.00;;;7.02;46.19
71917;BME280;59793;46.506;6.674;2023-04-06T01:04:07;97348.34;;;6.98;46.26
71917;BME280;59793;46.506;6.674;2023-04-06T01:06:32;97313.34;;;6.50;46.96
71917;BME280;59793;46.506;6.674;2023-04-06T01:08:58;97329.88;;;6.68;47.13
71917;BME280;59793;46.506;6.674;2023-04-06T01:11:23;97343.13;;;6.72;47.72
71917;BME280;59793;46.506;6.674;2023-04-06T01:13:48;97334.78;;;6.69;47.78
71917;BME280;59793;46.506;6.674;2023-04-06T01:16:14;97336.16;;;6.58;48.29
71917;BME280;59793;46.506;6.674;2023-04-06T01:18:39;97320.75;;;6.74;48.00
71917;BME280;59793;46.506;6.674;2023-04-06T01:21:05;97326.31;;;6.81;47.77
71917;BME280;59793;46.506;6.674;2023-04-06T01:23:30;97320.31;;;6.81;47.40
71917;BME280;59793;46.506;6.674;2023-04-06T01:25:56;97306.13;;;6.73;47.37
71917;BME280;59793;46.506;6.674;2023-04-06T01:28:21;97316.94;;;6.72;47.42
71917;BME280;59793;46.506;6.674;2023-04-06T01:30:46;97303.38;;;6.43;48.06
71917;BME280;59793;46.506;6.674;2023-04-06T01:33:12;97303.34;;;6.35;48.03
71917;BME280;59793;46.506;6.674;2023-04-06T01:35:37;97319.06;;;6.43;48.28
71917;BME280;59793;46.506;6.674;2023-04-06T01:38:02;97315.81;;;6.29;48.71
71917;BME280;59793;46.506;6.674;2023-04-06T01:40:28;97322.72;;;6.16;49.39
71917;BME280;59793;46.506;6.674;2023-04-06T01:42:53;97324.34;;;5.95;49.71
71917;BME280;59793;46.506;6.674;2023-04-06T01:45:19;97324.09;;;5.74;50.39
71917;BME280;59793;46.506;6.674;2023-04-06T01:47:44;97318.47;;;5.58;50.42
71917;BME280;59793;46.506;6.674;2023-04-06T01:50:10;97304.88;;;5.39;50.86
71917;BME280;59793;46.506;6.674;2023-04-06T01:52:37;97309.25;;;5.52;50.75
71917;BME280;59793;46.506;6.674;2023-04-06T01:55:02;97297.44;;;5.32;51.40
71917;BME280;59793;46.506;6.674;2023-04-06T01:57:28;97293.72;;;5.24;51.28
71917;BME280;59793;46.506;6.674;2023-04-06T01:59:53;97315.38;;;5.25;51.94
71917;BME280;59793;46.506;6.674;2023-04-06T02:02:18;97301.59;;;5.02;52.32
71917;BME280;59793;46.506;6.674;2023-04-06T02:04:44;97309.94;;;4.90;52.65
71917;BME280;59793;46.506;6.674;2023-04-06T02:07:09;97315.66;;;4.92;52.54
71917;BME280;59793;46.506;6.674;2023-04-06T02:09:35;97326.03;;;4.84;53.10
71917;BME280;59793;46.506;6.674;2023-04-06T02:12:01;97305.97;;;4.70;52.61
71917;BME280;59793;46.506;6.674;2023-04-06T02:14:27;97294.38;;;4.63;52.62
71917;BME280;59793;46.506;6.674;2023-04-06T02:16:52;97308.94;;;4.77;52.58
71917;BME280;59793;46.506;6.674;2023-04-06T02:19:18;97278.91;;;4.66;52.57
71917;BME280;59793;46.506;6.674;2023-04-06T02:21:43;97321.50;;;4.98;52.64
71917;BME280;59793;46.506;6.674;2023-04-06T02:24:09;97330.19;;;5.07;52.91
71917;BME280;59793;46.506;6.674;2023-04-06T02:26:34;97318.22;;;5.06;52.87
71917;BME280;59793;46.506;6.674;2023-04-06T02:28:59;97312.31;;;5.00;53.48
71917;BME280;59793;46.506;6.674;2023-04-06T02:31:26;97322.03;;;5.09;53.77
71917;BME280;59793;46.506;6.674;2023-04-06T02:33:51;97326.03;;;5.06;53.91
71917;BME280;59793;46.506;6.674;2023-04-06T02:36:17;97304.63;;;4.95;53.26
71917;BME280;59793;46.506;6.674;2023-04-06T02:38:42;97319.88;;;5.02;53.44
71917;BME280;59793;46.506;6.674;2023-04-06T02:41:07;97307.50;;;4.94;53.66
71917;BME280;59793;46.506;6.674;2023-04-06T02:43:33;97291.03;;;4.85;53.33
71917;BME280;59793;46.506;6.674;2023-04-06T02:45:58;97295.22;;;4.72;53.96
71917;BME280;59793;46.506;6.674;2023-04-06T02:48:23;97317.19;;;4.71;53.92
71917;BME280;59793;46.506;6.674;2023-04-06T02:50:49;97323.25;;;4.44;54.41
71917;BME280;59793;46.506;6.674;2023-04-06T02:53:14;97297.19;;;4.30;54.45
71917;BME280;59793;46.506;6.674;2023-04-06T02:55:40;97323.06;;;4.26;54.90
71917;BME280;59793;46.506;6.674;2023-04-06T02:58:05;97316.34;;;4.12;55.60
71917;BME280;59793;46.506;6.674;2023-04-06T03:00:31;97313.81;;;4.20;55.49
71917;BME280;59793;46.506;6.674;2023-04-06T03:02:56;97319.41;;;4.27;55.73
71917;BME280;59793;46.506;6.674;2023-04-06T03:05:21;97276.88;;;3.91;56.32
71917;BME280;59793;46.506;6.674;2023-04-06T03:07:47;97321.06;;;4.10;56.56
71917;BME280;59793;46.506;6.674;2023-04-06T03:10:12;97324.66;;;4.00;56.67
71917;BME280;59793;46.506;6.674;2023-04-06T03:12:37;97291.34;;;3.69;56.91
71917;BME280;59793;46.506;6.674;2023-04-06T03:15:03;97326.59;;;3.94;57.33
71917;BME280;59793;46.506;6.674;2023-04-06T03:17:29;97326.19;;;4.01;57.35
71917;BME280;59793;46.506;6.674;2023-04-06T03:19:54;97295.50;;;3.98;56.95
71917;BME280;59793;46.506;6.674;2023-04-06T03:22:20;97317.69;;;4.09;57.15
71917;BME280;59793;46.506;6.674;2023-04-06T03:24:45;97306.50;;;4.08;57.52
71917;BME280;59793;46.506;6.674;2023-04-06T03:27:11;97318.00;;;4.07;57.78
71917;BME280;59793;46.506;6.674;2023-04-06T03:29:36;97281.41;;;3.99;58.05
71917;BME280;59793;46.506;6.674;2023-04-06T03:32:02;97296.47;;;4.02;57.93
71917;BME280;59793;46.506;6.674;2023-04-06T03:34:27;97325.63;;;4.18;58.33
71917;BME280;59793;46.506;6.674;2023-04-06T03:36:52;97316.31;;;4.25;58.34
71917;BME280;59793;46.506;6.674;2023-04-06T03:39:18;97313.13;;;4.28;58.23
71917;BME280;59793;46.506;6.674;2023-04-06T03:41:43;97310.34;;;4.25;58.14
71917;BME280;59793;46.506;6.674;2023-04-06T03:44:09;97332.41;;;4.41;58.17
71917;BME280;59793;46.506;6.674;2023-04-06T03:46:35;97338.69;;;4.54;57.46
71917;BME280;59793;46.506;6.674;2023-04-06T03:49:00;97329.00;;;4.54;57.68
71917;BME280;59793;46.506;6.674;2023-04-06T03:51:26;97303.34;;;4.34;57.60
71917;BME280;59793;46.506;6.674;2023-04-06T03:53:52;97329.13;;;4.49;57.66
71917;BME280;59793;46.506;6.674;2023-04-06T03:56:17;97334.59;;;4.25;57.39
71917;BME280;59793;46.506;6.674;2023-04-06T03:58:42;97342.41;;;4.25;57.43
71917;BME280;59793;46.506;6.674;2023-04-06T04:01:10;97332.94;;;3.88;58.24
71917;BME280;59793;46.506;6.674;2023-04-06T04:03:35;97281.44;;;3.57;58.48
71917;BME280;59793;46.506;6.674;2023-04-06T04:06:01;97281.69;;;3.70;58.30
71917;BME280;59793;46.506;6.674;2023-04-06T04:08:27;97355.38;;;4.03;58.70
71917;BME280;59793;46.506;6.674;2023-04-06T04:10:52;97290.25;;;3.43;58.92
71917;BME280;59793;46.506;6.674;2023-04-06T04:13:17;97360.19;;;3.96;58.95
71917;BME280;59793;46.506;6.674;2023-04-06T04:15:43;97354.88;;;4.15;58.64
71917;BME280;59793;46.506;6.674;2023-04-06T04:18:09;97359.13;;;4.24;58.91
71917;BME280;59793;46.506;6.674;2023-04-06T04:20:34;97330.53;;;4.05;58.95
71917;BME280;59793;46.506;6.674;2023-04-06T04:22:59;97351.94;;;4.30;58.65
71917;BME280;59793;46.506;6.674;2023-04-06T04:25:25;97337.56;;;4.32;58.30
71917;BME280;59793;46.506;6.674;2023-04-06T04:27:50;97365.94;;;4.48;58.37
71917;BME280;59793;46.506;6.674;2023-04-06T04:30:16;97328.88;;;4.23;58.68
71917;BME280;59793;46.506;6.674;2023-04-06T04:32:41;97372.59;;;4.54;58.81
71917;BME280;59793;46.506;6.674;2023-04-06T04:35:07;97365.06;;;4.52;58.87
71917;BME280;59793;46.506;6.674;2023-04-06T04:37:32;97347.78;;;4.43;59.41
71917;BME280;59793;46.506;6.674;2023-04-06T04:39:59;97352.81;;;4.39;60.00
71917;BME280;59793;46.506;6.674;2023-04-06T04:42:25;97365.91;;;4.62;59.46
71917;BME280;59793;46.506;6.674;2023-04-06T04:44:50;97349.53;;;4.70;58.83
71917;BME280;59793;46.506;6.674;2023-04-06T04:47:15;97335.94;;;4.59;58.86
71917;BME280;59793;46.506;6.674;2023-04-06T04:49:41;97377.50;;;4.69;58.71
71917;BME280;59793;46.506;6.674;2023-04-06T04:52:06;97381.97;;;4.55;59.00
71917;BME280;59793;46.506;6.674;2023-04-06T04:54:32;97376.19;;;4.30;59.33
71917;BME280;59793;46.506;6.674;2023-04-06T04:56:57;97363.38;;;3.93;60.57
71917;BME280;59793;46.506;6.674;2023-04-06T04:59:22;97364.81;;;3.99;60.71
71917;BME280;59793;46.506;6.674;2023-04-06T05:01:48;97372.63;;;3.99;60.85
71917;BME280;59793;46.506;6.674;2023-04-06T05:04:13;97383.94;;;4.08;60.99
71917;BME280;59793;46.506;6.674;2023-04-06T05:06:38;97389.25;;;4.03;61.17
71917;BME280;59793;46.506;6.674;2023-04-06T05:09:04;97397.94;;;4.12;61.34
71917;BME280;59793;46.506;6.674;2023-04-06T05:11:29;97381.03;;;4.10;61.26
71917;BME280;59793;46.506;6.674;2023-04-06T05:13:54;97389.16;;;4.36;60.39
71917;BME280;59793;46.506;6.674;2023-04-06T05:16:20;97396.38;;;4.52;59.70
71917;BME280;59793;46.506;6.674;2023-04-06T05:18:47;97389.69;;;4.60;59.30
71917;BME280;59793;46.506;6.674;2023-04-06T05:21:12;97397.81;;;4.45;60.01
71917;BME280;59793;46.506;6.674;2023-04-06T05:23:38;97385.66;;;4.40;59.83
71917;BME280;59793;46.506;6.674;2023-04-06T05:26:03;97397.81;;;4.45;60.37
71917;BME280;59793;46.506;6.674;2023-04-06T05:28:29;97401.94;;;4.73;59.49
71917;BME280;59793;46.506;6.674;2023-04-06T05:30:55;97394.72;;;4.70;59.45
71917;BME280;59793;46.506;6.674;2023-04-06T05:33:22;97381.78;;;4.38;60.07
71917;BME280;59793;46.506;6.674;2023-04-06T05:35:47;97371.84;;;4.40;59.95
71917;BME280;59793;46.506;6.674;2023-04-06T05:38:13;97370.50;;;4.42;60.29
71917;BME280;59793;46.506;6.674;2023-04-06T05:40:38;97406.88;;;4.75;59.96
71917;BME280;59793;46.506;6.674;2023-04-06T05:43:06;97340.88;;;4.24;60.29
71917;BME280;59793;46.506;6.674;2023-04-06T05:45:31;97348.25;;;4.45;60.63
71917;BME280;59793;46.506;6.674;2023-04-06T05:47:57;97399.25;;;5.01;60.22
71917;BME280;59793;46.506;6.674;2023-04-06T05:50:22;97387.22;;;5.14;59.65
71917;BME280;59793;46.506;6.674;2023-04-06T05:52:47;97344.38;;;4.92;59.71
71917;BME280;59793;46.506;6.674;2023-04-06T05:55:13;97378.06;;;5.25;59.38
71917;BME280;59793;46.506;6.674;2023-04-06T05:57:38;97383.84;;;5.36;59.40
71917;BME280;59793;46.506;6.674;2023-04-06T06:00:05;97403.91;;;5.49;58.70
71917;BME280;59793;46.506;6.674;2023-04-06T06:02:31;97391.28;;;5.51;58.50
71917;BME280;59793;46.506;6.674;2023-04-06T06:04:57;97373.28;;;5.41;58.35
71917;BME280;59793;46.506;6.674;2023-04-06T06:07:23;97399.06;;;5.65;57.88
71917;BME280;59793;46.506;6.674;2023-04-06T06:09:48;97385.91;;;5.47;57.88
71917;BME280;59793;46.506;6.674;2023-04-06T06:12:14;97370.56;;;5.55;58.04
71917;BME280;59793;46.506;6.674;2023-04-06T06:14:39;97400.50;;;5.71;57.77
71917;BME280;59793;46.506;6.674;2023-04-06T06:17:04;97388.06;;;5.77;57.84
71917;BME280;59793;46.506;6.674;2023-04-06T06:19:30;97399.25;;;5.99;57.80
71917;BME280;59793;46.506;6.674;2023-04-06T06:21:55;97390.81;;;6.03;57.57
71917;BME280;59793;46.506;6.674;2023-04-06T06:24:21;97413.25;;;6.35;57.35
71917;BME280;59793;46.506;6.674;2023-04-06T06:26:46;97408.66;;;6.49;57.02
71917;BME280;59793;46.506;6.674;2023-04-06T06:29:14;97410.22;;;6.67;56.85
71917;BME280;59793;46.506;6.674;2023-04-06T06:31:39;97408.88;;;6.79;56.89
71917;BME280;59793;46.506;6.674;2023-04-06T06:34:05;97398.25;;;6.92;56.22
71917;BME280;59793;46.506;6.674;2023-04-06T06:36:31;97408.28;;;7.08;55.57
71917;BME280;59793;46.506;6.674;2023-04-06T06:38:57;97392.22;;;7.27;55.20
71917;BME280;59793;46.506;6.674;2023-04-06T06:41:23;97421.66;;;7.06;54.88
71917;BME280;59793;46.506;6.674;2023-04-06T06:43:49;97367.44;;;6.98;54.93
71917;BME280;59793;46.506;6.674;2023-04-06T06:46:14;97345.56;;;7.11;54.16
71917;BME280;59793;46.506;6.674;2023-04-06T06:48:39;97393.44;;;7.47;54.45
71917;BME280;59793;46.506;6.674;2023-04-06T06:51:05;97419.13;;;7.79;53.71
71917;BME280;59793;46.506;6.674;2023-04-06T06:53:30;97404.97;;;7.72;52.73
71917;BME280;59793;46.506;6.674;2023-04-06T06:55:55;97436.06;;;7.99;52.93
71917;BME280;59793;46.506;6.674;2023-04-06T06:58:21;97404.72;;;8.03;52.62
71917;BME280;59793;46.506;6.674;2023-04-06T07:00:46;97421.44;;;8.28;52.70
71917;BME280;59793;46.506;6.674;2023-04-06T07:03:12;97400.25;;;8.42;52.15
71917;BME280;59793;46.506;6.674;2023-04-06T07:05:37;97404.44;;;8.64;51.91
71917;BME280;59793;46.506;6.674;2023-04-06T07:08:03;97425.38;;;9.02;51.07
71917;BME280;59793;46.506;6.674;2023-04-06T07:10:28;97397.41;;;8.97;51.13
71917;BME280;59793;46.506;6.674;2023-04-06T07:12:54;97435.88;;;9.02;51.25
71917;BME280;59793;46.506;6.674;2023-04-06T07:15:19;97437.59;;;8.77;51.98
71917;BME280;59793;46.506;6.674;2023-04-06T07:17:45;97429.53;;;8.52;52.88
71917;BME280;59793;46.506;6.674;2023-04-06T07:20:11;97434.69;;;8.40;53.28
71917;BME280;59793;46.506;6.674;2023-04-06T07:22:38;97397.56;;;8.12;52.97
71917;BME280;59793;46.506;6.674;2023-04-06T07:25:03;97442.53;;;8.49;52.62
71917;BME280;59793;46.506;6.674;2023-04-06T07:27:29;97409.38;;;8.27;52.95
71917;BME280;59793;46.506;6.674;2023-04-06T07:29:54;97426.72;;;8.87;52.61
71917;BME280;59793;46.506;6.674;2023-04-06T07:32:20;97440.63;;;9.29;52.48
71917;BME280;59793;46.506;6.674;2023-04-06T07:34:45;97430.13;;;9.08;51.79
71917;BME280;59793;46.506;6.674;2023-04-06T07:37:12;97420.97;;;8.64;52.13
71917;BME280;59793;46.506;6.674;2023-04-06T07:39:37;97431.53;;;8.08;53.82
71917;BME280;59793;46.506;6.674;2023-04-06T07:42:02;97421.16;;;8.59;52.91
71917;BME280;59793;46.506;6.674;2023-04-06T07:44:28;97400.44;;;7.89;54.17
71917;BME280;59793;46.506;6.674;2023-04-06T07:46:53;97421.13;;;8.38;53.51
71917;BME280;59793;46.506;6.674;2023-04-06T07:49:18;97448.00;;;8.94;53.20
71917;BME280;59793;46.506;6.674;2023-04-06T07:51:45;97429.66;;;9.27;51.30
71917;BME280;59793;46.506;6.674;2023-04-06T07:54:11;97419.25;;;9.31;50.82
71917;BME280;59793;46.506;6.674;2023-04-06T07:56:36;97412.41;;;9.18;50.59
71917;BME280;59793;46.506;6.674;2023-04-06T07:59:02;97456.06;;;9.31;50.97
71917;BME280;59793;46.506;6.674;2023-04-06T08:01:28;97460.31;;;9.23;51.92
71917;BME280;59793;46.506;6.674;2023-04-06T08:03:55;97438.38;;;8.98;51.85
71917;BME280;59793;46.506;6.674;2023-04-06T08:06:21;97441.50;;;9.33;50.77
71917;BME280;59793;46.506;6.674;2023-04-06T08:08:46;97452.09;;;9.79;49.86
71917;BME280;59793;46.506;6.674;2023-04-06T08:11:12;97435.59;;;9.70;49.46
71917;BME280;59793;46.506;6.674;2023-04-06T08:13:37;97448.72;;;10.03;48.80
71917;BME280;59793;46.506;6.674;2023-04-06T08:16:03;97386.78;;;9.60;49.89
71917;BME280;59793;46.506;6.674;2023-04-06T08:18:28;97444.53;;;9.90;49.63
71917;BME280;59793;46.506;6.674;2023-04-06T08:20:55;97447.91;;;9.78;50.07
71917;BME280;59793;46.506;6.674;2023-04-06T08:23:21;97449.91;;;9.27;51.87
71917;BME280;59793;46.506;6.674;2023-04-06T08:25:46;97446.50;;;8.84;52.90
71917;BME280;59793;46.506;6.674;2023-04-06T08:28:12;97456.22;;;8.54;54.42
71917;BME280;59793;46.506;6.674;2023-04-06T08:30:42;97428.38;;;8.41;53.90
71917;BME280;59793;46.506;6.674;2023-04-06T08:33:08;97453.81;;;8.49;53.96
71917;BME280;59793;46.506;6.674;2023-04-06T08:35:34;97434.38;;;8.92;53.15
71917;BME280;59793;46.506;6.674;2023-04-06T08:38:00;97434.69;;;9.12;52.87
71917;BME280;59793;46.506;6.674;2023-04-06T08:40:25;97445.75;;;9.59;51.98
71917;BME280;59793;46.506;6.674;2023-04-06T08:42:55;97428.53;;;9.82;49.75
71917;BME280;59793;46.506;6.674;2023-04-06T08:45:22;97415.00;;;9.72;50.42
71917;BME280;59793;46.506;6.674;2023-04-06T08:47:51;97449.56;;;9.07;52.74
71917;BME280;59793;46.506;6.674;2023-04-06T08:50:18;97445.16;;;9.41;51.96
71917;BME280;59793;46.506;6.674;2023-04-06T08:52:47;97443.16;;;9.71;50.77
71917;BME280;59793;46.506;6.674;2023-04-06T08:55:13;97435.91;;;10.14;49.48
71917;BME280;59793;46.506;6.674;2023-04-06T08:57:40;97438.69;;;10.42;49.21
71917;BME280;59793;46.506;6.674;2023-04-06T09:00:07;97441.66;;;10.52;48.08
71917;BME280;59793;46.506;6.674;2023-04-06T09:02:38;97444.28;;;10.28;48.86
71917;BME280;59793;46.506;6.674;2023-04-06T09:05:04;97445.84;;;10.53;48.40
71917;BME280;59793;46.506;6.674;2023-04-06T09:07:30;97411.56;;;10.04;48.48
71917;BME280;59793;46.506;6.674;2023-04-06T09:09:56;97435.94;;;10.26;48.85
71917;BME280;59793;46.506;6.674;2023-04-06T09:12:31;97423.34;;;9.74;49.37
71917;BME280;59793;46.506;6.674;2023-04-06T09:14:57;97448.59;;;9.54;50.59
71917;BME280;59793;46.506;6.674;2023-04-06T09:17:25;97425.22;;;9.19;51.93
71917;BME280;59793;46.506;6.674;2023-04-06T09:19:51;97394.56;;;9.56;50.42
71917;BME280;59793;46.506;6.674;2023-04-06T09:22:17;97438.94;;;9.79;51.05
71917;BME280;59793;46.506;6.674;2023-04-06T09:24:50;97451.22;;;9.87;51.97
71917;BME280;59793;46.506;6.674;2023-04-06T09:27:16;97424.06;;;10.08;51.37
71917;BME280;59793;46.506;6.674;2023-04-06T09:29:44;97411.03;;;9.66;51.71
71917;BME280;59793;46.506;6.674;2023-04-06T09:32:10;97443.72;;;9.65;51.32
71917;BME280;59793;46.506;6.674;2023-04-06T09:34:39;97420.59;;;9.70;49.98
71917;BME280;59793;46.506;6.674;2023-04-06T09:37:18;97429.53;;;10.02;50.46
71917;BME280;59793;46.506;6.674;2023-04-06T09:39:44;97440.56;;;10.29;50.37
71917;BME280;59793;46.506;6.674;2023-04-06T09:42:23;97432.41;;;10.22;50.56
71917;BME280;59793;46.506;6.674;2023-04-06T09:44:49;97431.75;;;10.25;50.19
71917;BME280;59793;46.506;6.674;2023-04-06T09:47:15;97400.34;;;9.83;51.12
71917;BME280;59793;46.506;6.674;2023-04-06T09:49:43;97417.25;;;9.94;50.97
71917;BME280;59793;46.506;6.674;2023-04-06T09:52:11;97437.47;;;10.27;50.32
71917;BME280;59793;46.506;6.674;2023-04-06T09:54:37;97437.94;;;10.29;51.05
71917;BME280;59793;46.506;6.674;2023-04-06T10:00:06;97438.06;;;11.10;48.34
71917;BME280;59793;46.506;6.674;2023-04-06T10:05:40;97443.56;;;11.17;48.00
71917;BME280;59793;46.506;6.674;2023-04-06T10:08:10;97437.03;;;10.74;47.44
71917;BME280;59793;46.506;6.674;2023-04-06T10:10:36;97435.38;;;10.69;48.01
71917;BME280;59793;46.506;6.674;2023-04-06T10:13:03;97435.41;;;10.45;49.68
71917;BME280;59793;46.506;6.674;2023-04-06T10:15:29;97432.53;;;10.74;47.11
71917;BME280;59793;46.506;6.674;2023-04-06T10:17:56;97424.78;;;10.29;46.81
71917;BME280;59793;46.506;6.674;2023-04-06T10:26:15;97431.28;;;12.09;40.17
71917;BME280;59793;46.506;6.674;2023-04-06T10:28:42;97432.28;;;11.88;40.62
71917;BME280;59793;46.506;6.674;2023-04-06T10:31:08;97426.72;;;11.93;41.38
71917;BME280;59793;46.506;6.674;2023-04-06T10:33:34;97434.06;;;11.84;42.45
71917;BME280;59793;46.506;6.674;2023-04-06T10:36:32;97436.94;;;11.51;41.92
71917;BME280;59793;46.506;6.674;2023-04-06T10:38:59;97435.41;;;11.94;42.47
71917;BME280;59793;46.506;6.674;2023-04-06T10:41:40;97390.69;;;10.85;43.77
71917;BME280;59793;46.506;6.674;2023-04-06T10:44:06;97436.53;;;11.09;46.23
71917;BME280;59793;46.506;6.674;2023-04-06T10:46:33;97419.44;;;10.90;47.67
71917;BME280;59793;46.506;6.674;2023-04-06T10:49:10;97391.50;;;11.58;44.26
71917;BME280;59793;46.506;6.674;2023-04-06T10:51:39;97424.78;;;11.62;43.67
71917;BME280;59793;46.506;6.674;2023-04-06T10:54:06;97403.09;;;11.69;42.05
71917;BME280;59793;46.506;6.674;2023-04-06T10:56:32;97428.78;;;11.84;44.25
71917;BME280;59793;46.506;6.674;2023-04-06T10:58:59;97430.66;;;11.56;44.66
71917;BME280;59793;46.506;6.674;2023-04-06T11:01:25;97414.88;;;12.19;40.21
71917;BME280;59793;46.506;6.674;2023-04-06T11:03:55;97409.81;;;12.61;40.15
71917;BME280;59793;46.506;6.674;2023-04-06T11:06:28;97419.81;;;13.07;39.98
71917;BME280;59793;46.506;6.674;2023-04-06T11:08:55;97398.28;;;12.70;37.67
71917;BME280;59793;46.506;6.674;2023-04-06T11:11:22;97421.03;;;12.74;37.88
71917;BME280;59793;46.506;6.674;2023-04-06T11:13:52;97407.47;;;13.30;37.31
71917;BME280;59793;46.506;6.674;2023-04-06T11:18:59;97411.97;;;13.49;34.14
71917;BME280;59793;46.506;6.674;2023-04-06T11:21:39;97414.69;;;13.53;33.78
71917;BME280;59793;46.506;6.674;2023-04-06T11:24:11;97399.09;;;13.48;32.93
71917;BME280;59793;46.506;6.674;2023-04-06T11:26:40;97386.06;;;14.04;31.89
71917;BME280;59793;46.506;6.674;2023-04-06T11:29:06;97387.00;;;14.16;30.86
71917;BME280;59793;46.506;6.674;2023-04-06T11:31:38;97389.19;;;13.64;32.16
71917;BME280;59793;46.506;6.674;2023-04-06T11:34:09;97401.00;;;13.47;33.34
71917;BME280;59793;46.506;6.674;2023-04-06T11:36:34;97391.41;;;13.04;31.32
71917;BME280;59793;46.506;6.674;2023-04-06T11:39:03;97374.72;;;13.00;33.25
71917;BME280;59793;46.506;6.674;2023-04-06T11:41:28;97399.56;;;14.45;32.16
71917;BME280;59793;46.506;6.674;2023-04-06T11:43:55;97355.56;;;14.41;30.68
71917;BME280;59793;46.506;6.674;2023-04-06T11:46:21;97373.72;;;14.39;31.21
71917;BME280;59793;46.506;6.674;2023-04-06T11:48:46;97378.00;;;13.97;32.61
71917;BME280;59793;46.506;6.674;2023-04-06T11:51:12;97350.34;;;13.49;32.78
71917;BME280;59793;46.506;6.674;2023-04-06T11:53:44;97380.53;;;14.40;34.61
71917;BME280;59793;46.506;6.674;2023-04-06T11:56:11;97366.91;;;14.41;33.35
71917;BME280;59793;46.506;6.674;2023-04-06T11:58:36;97351.69;;;14.61;34.17
71917;BME280;59793;46.506;6.674;2023-04-06T12:01:05;97377.22;;;14.20;32.07
71917;BME280;59793;46.506;6.674;2023-04-06T12:03:30;97363.34;;;13.80;31.08
71917;BME280;59793;46.506;6.674;2023-04-06T12:05:55;97362.06;;;13.48;31.14
71917;BME280;59793;46.506;6.674;2023-04-06T12:08:21;97358.72;;;12.92;32.40
71917;BME280;59793;46.506;6.674;2023-04-06T12:10:50;97355.72;;;12.75;31.97
71917;BME280;59793;46.506;6.674;2023-04-06T12:13:15;97373.19;;;12.79;34.18
71917;BME280;59793;46.506;6.674;2023-04-06T12:15:41;97375.72;;;13.30;30.20
71917;BME280;59793;46.506;6.674;2023-04-06T12:18:06;97370.63;;;13.02;30.17
71917;BME280;59793;46.506;6.674;2023-04-06T12:20:31;97364.06;;;13.35;29.29
71917;BME280;59793;46.506;6.674;2023-04-06T12:22:57;97324.47;;;13.19;28.47
71917;BME280;59793;46.506;6.674;2023-04-06T12:25:23;97365.66;;;13.20;29.74
71917;BME280;59793;46.506;6.674;2023-04-06T12:27:48;97339.09;;;13.13;28.18
71917;BME280;59793;46.506;6.674;2023-04-06T12:30:13;97336.81;;;13.77;29.37
71917;BME280;59793;46.506;6.674;2023-04-06T12:32:39;97356.66;;;14.13;27.84
71917;BME280;59793;46.506;6.674;2023-04-06T12:35:04;97319.25;;;13.92;26.49
71917;BME280;59793;46.506;6.674;2023-04-06T12:37:30;97361.88;;;14.59;26.19
71917;BME280;59793;46.506;6.674;2023-04-06T12:39:55;97340.38;;;14.98;26.17
71917;BME280;59793;46.506;6.674;2023-04-06T12:42:21;97334.94;;;15.58;25.28
71917;BME280;59793;46.506;6.674;2023-04-06T12:44:46;97341.38;;;15.98;24.15
71917;BME280;59793;46.506;6.674;2023-04-06T12:47:12;97347.63;;;15.35;26.19
71917;BME280;59793;46.506;6.674;2023-04-06T12:49:37;97346.63;;;15.50;25.46
71917;BME280;59793;46.506;6.674;2023-04-06T12:52:03;97312.38;;;14.67;25.19
71917;BME280;59793;46.506;6.674;2023-04-06T12:54:28;97333.41;;;14.82;24.13
71917;BME280;59793;46.506;6.674;2023-04-06T12:56:54;97334.97;;;14.87;24.15
71917;BME280;59793;46.506;6.674;2023-04-06T12:59:20;97347.25;;;14.99;24.02
71917;BME280;59793;46.506;6.674;2023-04-06T13:01:46;97350.41;;;15.12;25.56
71917;BME280;59793;46.506;6.674;2023-04-06T13:04:11;97309.69;;;14.37;24.77
71917;BME280;59793;46.506;6.674;2023-04-06T13:06:36;97327.84;;;14.61;25.91
71917;BME280;59793;46.506;6.674;2023-04-06T13:09:02;97330.31;;;14.80;25.49
71917;BME280;59793;46.506;6.674;2023-04-06T13:11:29;97333.97;;;15.36;24.95
71917;BME280;59793;46.506;6.674;2023-04-06T13:13:54;97317.47;;;15.16;23.83
71917;BME280;59793;46.506;6.674;2023-04-06T13:16:20;97335.34;;;16.05;23.18